sensor_id;sensor_type;location;lat;lon;timestamp;pressure;altitude;pressure_sealevel;temperature;humidity
60817;BME280;51921;51.518;-3.188;2023-07-20T00:00:21;101449.23;;;13.97;66.00
60817;BME280;51921;51.518;-3.188;2023-07-20T00:02:50;101450.30;;;10.38;91.38
60817;BME280;51921;51.518;-3.188;2023-07-20T00:05:12;101451.08;;;14.26;76.26
60817;BME280;51921;51.518;-3.188;2023-07-20T00:07:37;101452.45;;;13.72;74.17
60817;BME280;51921;51.518;-3.188;2023-07-20T00:10:03;101451.86;;;13.98;73.17
60817;BME280;51921;51.518;-3.188;2023-07-20T00:12:28;101452.16;;;14.36;70.28
60817;BME280;51921;51.518;-3.188;2023-07-20T00:14:53;101451.67;;;13.61;70.40
60817;BME280;51921;51.518;-3.188;2023-07-20T00:17:19;101448.86;;;13.53;70.45
60817;BME280;51921;51.518;-3.188;2023-07-20T00:19:44;101446.14;;;14.52;66.33
60817;BME280;51921;51.518;-3.188;2023-07-20T00:22:10;101443.48;;;14.66;65.40
60817;BME280;51921;51.518;-3.188;2023-07-20T00:24:35;101442.50;;;14.57;66.06
60817;BME280;51921;51.518;-3.188;2023-07-20T00:27:01;101438.02;;;14.27;65.06
60817;BME280;51921;51.518;-3.188;2023-07-20T00:29:26;101437.77;;;15.34;62.96
60817;BME280;51921;51.518;-3.188;2023-07-20T00:31:51;101438.84;;;14.69;62.26
60817;BME280;51921;51.518;-3.188;2023-07-20T00:34:17;101434.70;;;14.87;64.14
60817;BME280;51921;51.518;-3.188;2023-07-20T00:36:42;101430.60;;;15.83;60.69
60817;BME280;51921;51.518;-3.188;2023-07-20T00:39:08;101431.21;;;15.62;61.47
60817;BME280;51921;51.518;-3.188;2023-07-20T00:41:33;101432.00;;;15.23;60.80
60817;BME280;51921;51.518;-3.188;2023-07-20T00:43:58;101431.37;;;16.12;59.42
60817;BME280;51921;51.518;-3.188;2023-07-20T00:46:24;101430.09;;;16.61;57.06
60817;BME280;51921;51.518;-3.188;2023-07-20T00:48:49;101431.91;;;15.49;58.95
60817;BME280;51921;51.518;-3.188;2023-07-20T00:51:15;101429.48;;;15.08;60.60
60817;BME280;51921;51.518;-3.188;2023-07-20T00:53:40;101427.88;;;15.36;60.23
60817;BME280;51921;51.518;-3.188;2023-07-20T00:56:06;101429.02;;;15.16;58.66
60817;BME280;51921;51.518;-3.188;2023-07-20T00:58:31;101433.27;;;11.95;70.27
60817;BME280;51921;51.518;-3.188;2023-07-20T01:00:56;101432.74;;;13.38;68.94
60817;BME280;51921;51.518;-3.188;2023-07-20T01:03:22;101428.98;;;13.09;69.91
60817;BME280;51921;51.518;-3.188;2023-07-20T01:05:51;101428.95;;;14.38;65.79
60817;BME280;51921;51.518;-3.188;2023-07-20T01:08:18;101429.44;;;14.43;67.63
60817;BME280;51921;51.518;-3.188;2023-07-20T01:10:40;101427.53;;;13.33;70.14
60817;BME280;51921;51.518;-3.188;2023-07-20T01:13:06;101426.83;;;14.58;67.71
60817;BME280;51921;51.518;-3.188;2023-07-20T01:15:29;101426.09;;;13.63;70.46
60817;BME280;51921;51.518;-3.188;2023-07-20T01:17:54;101426.29;;;13.58;69.27
60817;BME280;51921;51.518;-3.188;2023-07-20T01:20:21;101426.95;;;13.35;72.08
60817;BME280;51921;51.518;-3.188;2023-07-20T01:23:03;101422.53;;;12.81;71.96
60817;BME280;51921;51.518;-3.188;2023-07-20T01:25:30;101423.15;;;13.10;70.93
60817;BME280;51921;51.518;-3.188;2023-07-20T01:30:14;101423.36;;;13.43;68.11
60817;BME280;51921;51.518;-3.188;2023-07-20T01:32:27;101419.22;;;14.56;64.91
60817;BME280;51921;51.518;-3.188;2023-07-20T01:34:53;101416.13;;;14.94;64.45
60817;BME280;51921;51.518;-3.188;2023-07-20T01:37:18;101415.01;;;14.30;66.06
60817;BME280;51921;51.518;-3.188;2023-07-20T01:39:43;101414.89;;;14.48;65.21
60817;BME280;51921;51.518;-3.188;2023-07-20T01:42:09;101415.55;;;15.26;63.20
60817;BME280;51921;51.518;-3.188;2023-07-20T01:44:34;101410.29;;;14.50;64.54
60817;BME280;51921;51.518;-3.188;2023-07-20T01:46:59;101413.37;;;13.90;64.83
60817;BME280;51921;51.518;-3.188;2023-07-20T01:49:25;101414.19;;;13.85;64.84
60817;BME280;51921;51.518;-3.188;2023-07-20T01:51:50;101407.93;;;15.67;60.84
60817;BME280;51921;51.518;-3.188;2023-07-20T01:54:16;101412.93;;;13.11;68.73
60817;BME280;51921;51.518;-3.188;2023-07-20T01:56:41;101406.74;;;14.16;64.40
60817;BME280;51921;51.518;-3.188;2023-07-20T01:59:07;101406.36;;;14.67;62.78
60817;BME280;51921;51.518;-3.188;2023-07-20T02:01:32;101404.45;;;13.77;65.96
60817;BME280;51921;51.518;-3.188;2023-07-20T02:03:57;101404.30;;;14.95;61.88
60817;BME280;51921;51.518;-3.188;2023-07-20T02:06:23;101403.29;;;15.77;60.53
60817;BME280;51921;51.518;-3.188;2023-07-20T02:08:48;101399.63;;;16.07;59.16
60817;BME280;51921;51.518;-3.188;2023-07-20T02:11:14;101401.61;;;14.04;64.20
60817;BME280;51921;51.518;-3.188;2023-07-20T02:13:39;101395.53;;;15.91;59.34
60817;BME280;51921;51.518;-3.188;2023-07-20T02:16:05;101394.08;;;14.80;61.43
60817;BME280;51921;51.518;-3.188;2023-07-20T02:18:30;101394.05;;;15.15;63.93
60817;BME280;51921;51.518;-3.188;2023-07-20T02:20:55;101391.67;;;14.87;62.53
60817;BME280;51921;51.518;-3.188;2023-07-20T02:23:20;101396.46;;;12.56;70.77
60817;BME280;51921;51.518;-3.188;2023-07-20T02:25:46;101392.74;;;13.26;70.68
60817;BME280;51921;51.518;-3.188;2023-07-20T02:28:13;101390.94;;;13.74;67.64
60817;BME280;51921;51.518;-3.188;2023-07-20T02:30:38;101388.18;;;15.82;61.95
60817;BME280;51921;51.518;-3.188;2023-07-20T02:33:02;101386.53;;;15.35;60.88
60817;BME280;51921;51.518;-3.188;2023-07-20T02:35:28;101388.66;;;13.47;69.27
60817;BME280;51921;51.518;-3.188;2023-07-20T02:37:53;101387.35;;;15.15;63.70
60817;BME280;51921;51.518;-3.188;2023-07-20T02:40:19;101384.57;;;14.23;67.09
60817;BME280;51921;51.518;-3.188;2023-07-20T02:42:44;101385.57;;;12.59;73.76
60817;BME280;51921;51.518;-3.188;2023-07-20T02:45:10;101384.37;;;13.43;70.57
60817;BME280;51921;51.518;-3.188;2023-07-20T02:47:35;101379.47;;;15.59;62.77
60817;BME280;51921;51.518;-3.188;2023-07-20T02:50:00;101378.41;;;16.37;59.87
60817;BME280;51921;51.518;-3.188;2023-07-20T02:52:26;101377.96;;;16.04;60.60
60817;BME280;51921;51.518;-3.188;2023-07-20T02:54:51;101380.60;;;13.67;68.29
60817;BME280;51921;51.518;-3.188;2023-07-20T02:57:17;101378.80;;;12.98;69.93
60817;BME280;51921;51.518;-3.188;2023-07-20T02:59:42;101375.13;;;13.41;67.57
60817;BME280;51921;51.518;-3.188;2023-07-20T03:02:08;101370.16;;;14.05;65.93
60817;BME280;51921;51.518;-3.188;2023-07-20T03:04:33;101376.18;;;13.14;70.63
60817;BME280;51921;51.518;-3.188;2023-07-20T03:06:58;101372.47;;;13.90;67.21
60817;BME280;51921;51.518;-3.188;2023-07-20T03:09:24;101373.48;;;14.93;64.29
60817;BME280;51921;51.518;-3.188;2023-07-20T03:11:50;101372.39;;;12.54;72.09
60817;BME280;51921;51.518;-3.188;2023-07-20T03:14:15;101376.54;;;13.47;70.45
60817;BME280;51921;51.518;-3.188;2023-07-20T03:16:40;101377.58;;;13.40;69.68
60817;BME280;51921;51.518;-3.188;2023-07-20T03:19:06;101376.64;;;12.07;73.63
60817;BME280;51921;51.518;-3.188;2023-07-20T03:21:31;101379.11;;;12.48;73.76
60817;BME280;51921;51.518;-3.188;2023-07-20T03:23:57;101379.40;;;12.04;75.59
60817;BME280;51921;51.518;-3.188;2023-07-20T03:26:22;101380.85;;;13.50;71.32
60817;BME280;51921;51.518;-3.188;2023-07-20T03:28:48;101376.54;;;14.48;67.52
60817;BME280;51921;51.518;-3.188;2023-07-20T03:31:13;101382.92;;;12.76;73.04
60817;BME280;51921;51.518;-3.188;2023-07-20T03:33:38;101377.08;;;14.81;65.74
60817;BME280;51921;51.518;-3.188;2023-07-20T03:36:04;101380.69;;;12.93;72.59
60817;BME280;51921;51.518;-3.188;2023-07-20T03:38:29;101383.51;;;12.96;71.58
60817;BME280;51921;51.518;-3.188;2023-07-20T03:40:56;101380.23;;;13.64;71.42
60817;BME280;51921;51.518;-3.188;2023-07-20T03:43:20;101379.81;;;13.54;69.85
60817;BME280;51921;51.518;-3.188;2023-07-20T03:45:46;101378.73;;;12.83;70.46
60817;BME280;51921;51.518;-3.188;2023-07-20T03:48:11;101379.86;;;12.77;72.34
60817;BME280;51921;51.518;-3.188;2023-07-20T03:50:36;101377.65;;;11.77;76.64
60817;BME280;51921;51.518;-3.188;2023-07-20T03:53:02;101377.10;;;14.72;66.28
60817;BME280;51921;51.518;-3.188;2023-07-20T03:55:27;101381.23;;;14.09;66.26
60817;BME280;51921;51.518;-3.188;2023-07-20T03:57:53;101378.69;;;14.74;66.77
60817;BME280;51921;51.518;-3.188;2023-07-20T04:00:19;101380.17;;;14.07;68.47
60817;BME280;51921;51.518;-3.188;2023-07-20T04:02:44;101377.68;;;15.86;61.82
60817;BME280;51921;51.518;-3.188;2023-07-20T04:05:09;101376.47;;;15.36;62.42
60817;BME280;51921;51.518;-3.188;2023-07-20T04:07:35;101382.40;;;13.49;69.33
60817;BME280;51921;51.518;-3.188;2023-07-20T04:10:00;101383.88;;;13.60;68.96
60817;BME280;51921;51.518;-3.188;2023-07-20T04:12:26;101382.96;;;13.62;68.71
60817;BME280;51921;51.518;-3.188;2023-07-20T04:14:51;101378.93;;;15.66;62.79
60817;BME280;51921;51.518;-3.188;2023-07-20T04:17:18;101378.10;;;13.64;67.19
60817;BME280;51921;51.518;-3.188;2023-07-20T04:19:42;101381.69;;;13.63;68.13
60817;BME280;51921;51.518;-3.188;2023-07-20T04:22:07;101380.08;;;12.20;70.15
60817;BME280;51921;51.518;-3.188;2023-07-20T04:24:33;101381.80;;;12.02;75.23
60817;BME280;51921;51.518;-3.188;2023-07-20T04:26:58;101379.35;;;14.74;66.56
60817;BME280;51921;51.518;-3.188;2023-07-20T04:29:24;101377.38;;;15.66;62.56
60817;BME280;51921;51.518;-3.188;2023-07-20T04:31:49;101373.16;;;15.74;61.71
60817;BME280;51921;51.518;-3.188;2023-07-20T04:34:15;101374.87;;;14.88;64.37
60817;BME280;51921;51.518;-3.188;2023-07-20T04:36:40;101375.22;;;15.20;63.29
60817;BME280;51921;51.518;-3.188;2023-07-20T04:39:06;101377.35;;;13.44;66.67
60817;BME280;51921;51.518;-3.188;2023-07-20T04:41:31;101374.71;;;14.67;65.29
60817;BME280;51921;51.518;-3.188;2023-07-20T04:43:57;101378.17;;;13.71;67.37
60817;BME280;51921;51.518;-3.188;2023-07-20T04:46:22;101374.06;;;13.33;68.95
60817;BME280;51921;51.518;-3.188;2023-07-20T04:48:47;101375.06;;;13.98;65.97
60817;BME280;51921;51.518;-3.188;2023-07-20T04:51:13;101376.43;;;12.94;69.67
60817;BME280;51921;51.518;-3.188;2023-07-20T04:53:38;101376.14;;;13.40;69.00
60817;BME280;51921;51.518;-3.188;2023-07-20T04:56:04;101379.69;;;12.75;70.57
60817;BME280;51921;51.518;-3.188;2023-07-20T04:58:29;101375.67;;;13.08;70.09
60817;BME280;51921;51.518;-3.188;2023-07-20T05:00:55;101373.98;;;13.35;69.52
60817;BME280;51921;51.518;-3.188;2023-07-20T05:03:20;101371.68;;;14.69;65.97
60817;BME280;51921;51.518;-3.188;2023-07-20T05:05:47;101374.40;;;14.22;66.25
60817;BME280;51921;51.518;-3.188;2023-07-20T05:08:11;101371.97;;;14.08;66.83
60817;BME280;51921;51.518;-3.188;2023-07-20T05:10:37;101376.64;;;14.29;65.63
60817;BME280;51921;51.518;-3.188;2023-07-20T05:13:02;101382.05;;;13.49;66.97
60817;BME280;51921;51.518;-3.188;2023-07-20T05:15:27;101385.06;;;13.30;70.29
60817;BME280;51921;51.518;-3.188;2023-07-20T05:17:53;101387.57;;;13.02;70.95
60817;BME280;51921;51.518;-3.188;2023-07-20T05:20:19;101383.01;;;12.46;72.25
60817;BME280;51921;51.518;-3.188;2023-07-20T05:22:44;101381.87;;;12.56;76.69
60817;BME280;51921;51.518;-3.188;2023-07-20T05:25:10;101378.77;;;12.00;78.95
60817;BME280;51921;51.518;-3.188;2023-07-20T05:27:36;101380.43;;;13.01;76.19
60817;BME280;51921;51.518;-3.188;2023-07-20T05:30:00;101375.98;;;12.27;79.04
60817;BME280;51921;51.518;-3.188;2023-07-20T05:32:26;101378.19;;;13.07;74.09
60817;BME280;51921;51.518;-3.188;2023-07-20T05:34:52;101383.60;;;13.94;72.31
60817;BME280;51921;51.518;-3.188;2023-07-20T05:37:16;101383.15;;;13.20;74.90
60817;BME280;51921;51.518;-3.188;2023-07-20T05:39:42;101378.01;;;13.83;72.91
60817;BME280;51921;51.518;-3.188;2023-07-20T05:42:08;101374.59;;;14.40;70.11
60817;BME280;51921;51.518;-3.188;2023-07-20T05:44:33;101376.11;;;12.25;76.33
60817;BME280;51921;51.518;-3.188;2023-07-20T05:46:58;101374.75;;;13.42;74.49
60817;BME280;51921;51.518;-3.188;2023-07-20T05:49:24;101375.35;;;14.00;69.91
60817;BME280;51921;51.518;-3.188;2023-07-20T05:51:49;101374.84;;;15.24;67.25
60817;BME280;51921;51.518;-3.188;2023-07-20T05:54:15;101374.10;;;15.58;64.01
60817;BME280;51921;51.518;-3.188;2023-07-20T05:56:40;101374.86;;;15.28;65.15
60817;BME280;51921;51.518;-3.188;2023-07-20T05:59:06;101373.27;;;16.47;62.00
60817;BME280;51921;51.518;-3.188;2023-07-20T06:01:31;101373.14;;;14.06;67.79
60817;BME280;51921;51.518;-3.188;2023-07-20T06:03:56;101373.65;;;15.11;66.03
60817;BME280;51921;51.518;-3.188;2023-07-20T06:06:22;101371.13;;;15.42;64.05
60817;BME280;51921;51.518;-3.188;2023-07-20T06:08:47;101369.89;;;14.92;65.89
60817;BME280;51921;51.518;-3.188;2023-07-20T06:11:13;101369.64;;;14.29;67.54
60817;BME280;51921;51.518;-3.188;2023-07-20T06:13:38;101370.17;;;14.31;67.82
60817;BME280;51921;51.518;-3.188;2023-07-20T06:16:04;101364.51;;;13.84;69.43
60817;BME280;51921;51.518;-3.188;2023-07-20T06:18:29;101365.24;;;14.92;66.57
60817;BME280;51921;51.518;-3.188;2023-07-20T06:20:55;101366.99;;;14.40;67.71
60817;BME280;51921;51.518;-3.188;2023-07-20T06:23:20;101367.82;;;14.44;67.13
60817;BME280;51921;51.518;-3.188;2023-07-20T06:25:46;101367.58;;;15.47;63.62
60817;BME280;51921;51.518;-3.188;2023-07-20T06:28:11;101367.24;;;15.27;63.31
60817;BME280;51921;51.518;-3.188;2023-07-20T06:30:36;101364.97;;;16.52;60.25
60817;BME280;51921;51.518;-3.188;2023-07-20T06:33:02;101370.27;;;15.57;61.90
60817;BME280;51921;51.518;-3.188;2023-07-20T06:35:27;101373.78;;;17.39;57.66
60817;BME280;51921;51.518;-3.188;2023-07-20T06:37:52;101371.07;;;17.39;58.43
60817;BME280;51921;51.518;-3.188;2023-07-20T06:40:18;101374.14;;;15.67;62.52
60817;BME280;51921;51.518;-3.188;2023-07-20T06:42:43;101374.41;;;15.26;62.59
60817;BME280;51921;51.518;-3.188;2023-07-20T06:45:09;101372.35;;;14.80;65.35
60817;BME280;51921;51.518;-3.188;2023-07-20T06:47:34;101370.50;;;16.28;62.02
60817;BME280;51921;51.518;-3.188;2023-07-20T06:50:00;101368.67;;;17.33;57.93
60817;BME280;51921;51.518;-3.188;2023-07-20T06:52:25;101368.52;;;16.65;62.05
60817;BME280;51921;51.518;-3.188;2023-07-20T06:54:51;101370.06;;;15.54;64.28
60817;BME280;51921;51.518;-3.188;2023-07-20T06:57:16;101372.37;;;15.35;65.63
60817;BME280;51921;51.518;-3.188;2023-07-20T06:59:41;101369.40;;;15.47;64.32
60817;BME280;51921;51.518;-3.188;2023-07-20T07:02:07;101372.92;;;14.71;66.36
60817;BME280;51921;51.518;-3.188;2023-07-20T07:04:32;101369.55;;;14.21;71.40
60817;BME280;51921;51.518;-3.188;2023-07-20T07:06:59;101367.46;;;15.20;64.98
60817;BME280;51921;51.518;-3.188;2023-07-20T07:09:23;101370.07;;;14.99;67.39
60817;BME280;51921;51.518;-3.188;2023-07-20T07:11:48;101372.67;;;15.60;64.81
60817;BME280;51921;51.518;-3.188;2023-07-20T07:14:14;101369.36;;;16.50;60.26
60817;BME280;51921;51.518;-3.188;2023-07-20T07:16:39;101373.99;;;16.46;60.07
60817;BME280;51921;51.518;-3.188;2023-07-20T07:19:05;101373.88;;;14.84;62.04
60817;BME280;51921;51.518;-3.188;2023-07-20T07:21:30;101375.52;;;17.33;54.92
60817;BME280;51921;51.518;-3.188;2023-07-20T07:23:55;101375.66;;;16.76;57.92
60817;BME280;51921;51.518;-3.188;2023-07-20T07:26:21;101375.05;;;17.14;56.73
60817;BME280;51921;51.518;-3.188;2023-07-20T07:28:46;101369.62;;;20.40;50.30
60817;BME280;51921;51.518;-3.188;2023-07-20T07:31:11;101369.86;;;22.60;43.70
60817;BME280;51921;51.518;-3.188;2023-07-20T07:33:37;101363.99;;;24.24;39.64
60817;BME280;51921;51.518;-3.188;2023-07-20T07:36:02;101365.41;;;24.77;35.34
60817;BME280;51921;51.518;-3.188;2023-07-20T07:38:27;101361.44;;;24.80;33.91
60817;BME280;51921;51.518;-3.188;2023-07-20T07:40:52;101364.05;;;25.05;35.35
60817;BME280;51921;51.518;-3.188;2023-07-20T07:43:18;101365.10;;;27.49;31.08
60817;BME280;51921;51.518;-3.188;2023-07-20T07:45:43;101362.08;;;26.26;31.32
60817;BME280;51921;51.518;-3.188;2023-07-20T07:48:08;101358.47;;;29.03;28.30
60817;BME280;51921;51.518;-3.188;2023-07-20T07:50:34;101359.25;;;22.73;33.35
60817;BME280;51921;51.518;-3.188;2023-07-20T07:52:59;101359.64;;;21.61;37.65
60817;BME280;51921;51.518;-3.188;2023-07-20T07:55:25;101353.68;;;24.53;34.80
60817;BME280;51921;51.518;-3.188;2023-07-20T07:57:49;101350.22;;;26.23;32.08
60817;BME280;51921;51.518;-3.188;2023-07-20T08:00:15;101351.28;;;27.38;29.73
60817;BME280;51921;51.518;-3.188;2023-07-20T08:02:40;101351.03;;;27.48;29.52
60817;BME280;51921;51.518;-3.188;2023-07-20T08:05:05;101348.34;;;27.32;29.15
60817;BME280;51921;51.518;-3.188;2023-07-20T08:07:30;101346.72;;;26.60;28.96
60817;BME280;51921;51.518;-3.188;2023-07-20T08:09:55;101345.90;;;28.68;27.36
60817;BME280;51921;51.518;-3.188;2023-07-20T08:12:20;101345.93;;;26.54;28.71
60817;BME280;51921;51.518;-3.188;2023-07-20T08:14:46;101343.46;;;24.82;31.58
60817;BME280;51921;51.518;-3.188;2023-07-20T08:17:11;101348.30;;;26.19;29.52
60817;BME280;51921;51.518;-3.188;2023-07-20T08:19:37;101345.69;;;25.96;29.38
60817;BME280;51921;51.518;-3.188;2023-07-20T08:22:01;101344.38;;;25.89;30.82
60817;BME280;51921;51.518;-3.188;2023-07-20T08:24:27;101345.68;;;26.28;29.93
60817;BME280;51921;51.518;-3.188;2023-07-20T08:26:52;101345.64;;;26.15;29.23
60817;BME280;51921;51.518;-3.188;2023-07-20T08:29:17;101344.41;;;25.43;30.97
60817;BME280;51921;51.518;-3.188;2023-07-20T08:31:42;101339.90;;;29.07;27.56
60817;BME280;51921;51.518;-3.188;2023-07-20T08:34:07;101337.94;;;22.54;32.41
60817;BME280;51921;51.518;-3.188;2023-07-20T08:36:33;101337.83;;;23.12;34.55
60817;BME280;51921;51.518;-3.188;2023-07-20T08:38:58;101336.17;;;23.28;34.22
60817;BME280;51921;51.518;-3.188;2023-07-20T08:41:23;101335.24;;;24.05;35.12
60817;BME280;51921;51.518;-3.188;2023-07-20T08:43:48;101337.55;;;24.80;33.27
60817;BME280;51921;51.518;-3.188;2023-07-20T08:46:15;101340.46;;;24.48;32.58
60817;BME280;51921;51.518;-3.188;2023-07-20T08:48:40;101344.18;;;22.50;34.42
60817;BME280;51921;51.518;-3.188;2023-07-20T08:51:04;101340.45;;;21.16;36.29
60817;BME280;51921;51.518;-3.188;2023-07-20T08:53:30;101337.18;;;24.41;33.21
60817;BME280;51921;51.518;-3.188;2023-07-20T08:55:55;101333.82;;;25.60;31.55
60817;BME280;51921;51.518;-3.188;2023-07-20T08:58:20;101334.91;;;25.76;31.29
60817;BME280;51921;51.518;-3.188;2023-07-20T09:00:45;101333.96;;;22.13;34.92
60817;BME280;51921;51.518;-3.188;2023-07-20T09:03:11;101330.59;;;22.96;33.41
60817;BME280;51921;51.518;-3.188;2023-07-20T09:05:38;101327.91;;;17.76;43.04
60817;BME280;51921;51.518;-3.188;2023-07-20T09:08:01;101326.27;;;21.79;38.38
60817;BME280;51921;51.518;-3.188;2023-07-20T09:10:27;101326.68;;;22.78;36.47
60817;BME280;51921;51.518;-3.188;2023-07-20T09:12:52;101325.33;;;22.80;38.14
60817;BME280;51921;51.518;-3.188;2023-07-20T09:15:17;101324.13;;;23.32;36.54
60817;BME280;51921;51.518;-3.188;2023-07-20T09:17:46;101322.33;;;22.76;35.15
60817;BME280;51921;51.518;-3.188;2023-07-20T09:20:09;101320.13;;;23.55;35.95
60817;BME280;51921;51.518;-3.188;2023-07-20T09:22:33;101319.35;;;24.35;34.60
60817;BME280;51921;51.518;-3.188;2023-07-20T09:24:58;101317.79;;;24.62;33.39
60817;BME280;51921;51.518;-3.188;2023-07-20T09:29:49;101317.90;;;25.71;32.67
60817;BME280;51921;51.518;-3.188;2023-07-20T09:32:19;101319.95;;;23.09;36.09
60817;BME280;51921;51.518;-3.188;2023-07-20T09:34:39;101319.17;;;20.51;40.08
60817;BME280;51921;51.518;-3.188;2023-07-20T09:37:04;101316.86;;;23.36;35.47
60817;BME280;51921;51.518;-3.188;2023-07-20T09:39:29;101313.91;;;20.85;40.27
60817;BME280;51921;51.518;-3.188;2023-07-20T09:42:00;101313.11;;;21.59;39.57
60817;BME280;51921;51.518;-3.188;2023-07-20T09:44:20;101314.39;;;21.73;38.31
60817;BME280;51921;51.518;-3.188;2023-07-20T09:46:46;101310.18;;;22.21;38.26
60817;BME280;51921;51.518;-3.188;2023-07-20T09:49:11;101305.21;;;22.91;36.93
60817;BME280;51921;51.518;-3.188;2023-07-20T09:51:36;101309.19;;;22.23;38.47
60817;BME280;51921;51.518;-3.188;2023-07-20T09:54:02;101301.76;;;23.87;35.75
60817;BME280;51921;51.518;-3.188;2023-07-20T09:56:27;101302.82;;;23.16;36.57
60817;BME280;51921;51.518;-3.188;2023-07-20T09:58:52;101307.75;;;20.98;41.10
60817;BME280;51921;51.518;-3.188;2023-07-20T10:01:20;101307.41;;;22.14;39.60
60817;BME280;51921;51.518;-3.188;2023-07-20T10:03:45;101308.27;;;21.74;40.11
60817;BME280;51921;51.518;-3.188;2023-07-20T10:06:10;101305.46;;;21.87;39.76
60817;BME280;51921;51.518;-3.188;2023-07-20T10:08:37;101301.24;;;19.69;43.90
60817;BME280;51921;51.518;-3.188;2023-07-20T10:10:59;101299.81;;;19.05;49.45
60817;BME280;51921;51.518;-3.188;2023-07-20T10:13:27;101297.28;;;20.60;45.05
60817;BME280;51921;51.518;-3.188;2023-07-20T10:15:51;101299.57;;;19.95;46.09
60817;BME280;51921;51.518;-3.188;2023-07-20T10:18:19;101301.03;;;21.06;43.46
60817;BME280;51921;51.518;-3.188;2023-07-20T10:20:40;101299.08;;;20.13;43.59
60817;BME280;51921;51.518;-3.188;2023-07-20T10:23:05;101299.98;;;21.67;42.61
60817;BME280;51921;51.518;-3.188;2023-07-20T10:25:30;101299.08;;;21.14;43.21
60817;BME280;51921;51.518;-3.188;2023-07-20T10:27:57;101300.12;;;21.02;42.63
60817;BME280;51921;51.518;-3.188;2023-07-20T10:30:21;101302.89;;;21.62;44.46
60817;BME280;51921;51.518;-3.188;2023-07-20T10:32:47;101299.07;;;21.39;42.19
60817;BME280;51921;51.518;-3.188;2023-07-20T10:35:13;101296.34;;;21.51;42.84
60817;BME280;51921;51.518;-3.188;2023-07-20T10:37:47;101295.20;;;21.42;41.64
60817;BME280;51921;51.518;-3.188;2023-07-20T10:42:33;101293.73;;;20.84;44.35
60817;BME280;51921;51.518;-3.188;2023-07-20T10:44:53;101291.56;;;22.50;40.92
60817;BME280;51921;51.518;-3.188;2023-07-20T10:47:18;101287.27;;;22.15;43.07
60817;BME280;51921;51.518;-3.188;2023-07-20T10:49:57;101286.11;;;21.60;42.06
60817;BME280;51921;51.518;-3.188;2023-07-20T10:52:10;101283.29;;;21.57;43.81
60817;BME280;51921;51.518;-3.188;2023-07-20T11:01:52;101275.97;;;21.66;44.70
60817;BME280;51921;51.518;-3.188;2023-07-20T11:04:16;101275.11;;;21.96;42.84
60817;BME280;51921;51.518;-3.188;2023-07-20T11:06:43;101270.64;;;21.91;40.95
60817;BME280;51921;51.518;-3.188;2023-07-20T11:09:08;101271.80;;;20.22;46.97
60817;BME280;51921;51.518;-3.188;2023-07-20T11:11:35;101275.74;;;21.22;46.00
60817;BME280;51921;51.518;-3.188;2023-07-20T11:13:59;101268.62;;;19.73;49.17
60817;BME280;51921;51.518;-3.188;2023-07-20T11:16:33;101265.60;;;20.98;46.58
60817;BME280;51921;51.518;-3.188;2023-07-20T11:18:48;101262.50;;;21.35;46.18
60817;BME280;51921;51.518;-3.188;2023-07-20T11:21:15;101261.15;;;21.54;45.01
60817;BME280;51921;51.518;-3.188;2023-07-20T11:23:39;101261.82;;;21.51;44.68
60817;BME280;51921;51.518;-3.188;2023-07-20T11:26:04;101260.80;;;21.22;46.35
60817;BME280;51921;51.518;-3.188;2023-07-20T11:28:30;101255.47;;;20.40;46.08
60817;BME280;51921;51.518;-3.188;2023-07-20T11:30:55;101255.61;;;20.73;44.29
60817;BME280;51921;51.518;-3.188;2023-07-20T11:33:20;101252.37;;;20.54;42.04
60817;BME280;51921;51.518;-3.188;2023-07-20T11:35:46;101255.95;;;21.09;41.28
60817;BME280;51921;51.518;-3.188;2023-07-20T11:38:12;101255.33;;;19.54;44.22
60817;BME280;51921;51.518;-3.188;2023-07-20T11:40:36;101260.05;;;20.54;43.44
60817;BME280;51921;51.518;-3.188;2023-07-20T11:43:02;101260.75;;;20.39;44.88
60817;BME280;51921;51.518;-3.188;2023-07-20T11:45:27;101261.39;;;18.73;50.07
60817;BME280;51921;51.518;-3.188;2023-07-20T11:47:52;101261.47;;;18.53;51.92
60817;BME280;51921;51.518;-3.188;2023-07-20T11:50:17;101259.15;;;18.73;52.94
60817;BME280;51921;51.518;-3.188;2023-07-20T11:52:43;101260.66;;;17.19;59.03
60817;BME280;51921;51.518;-3.188;2023-07-20T11:55:08;101255.85;;;18.01;57.83
60817;BME280;51921;51.518;-3.188;2023-07-20T11:57:33;101250.01;;;18.45;55.44
60817;BME280;51921;51.518;-3.188;2023-07-20T12:00:02;101251.67;;;18.03;56.46
60817;BME280;51921;51.518;-3.188;2023-07-20T12:02:25;101251.72;;;18.09;56.30
60817;BME280;51921;51.518;-3.188;2023-07-20T12:04:49;101248.56;;;18.81;55.84
60817;BME280;51921;51.518;-3.188;2023-07-20T12:07:15;101253.87;;;17.69;59.89
60817;BME280;51921;51.518;-3.188;2023-07-20T12:09:40;101259.42;;;17.16;62.40
60817;BME280;51921;51.518;-3.188;2023-07-20T12:12:10;101260.42;;;17.59;63.07
60817;BME280;51921;51.518;-3.188;2023-07-20T12:14:31;101257.06;;;17.49;61.08
60817;BME280;51921;51.518;-3.188;2023-07-20T12:16:56;101254.63;;;17.86;61.37
60817;BME280;51921;51.518;-3.188;2023-07-20T12:19:25;101245.95;;;18.39;59.32
60817;BME280;51921;51.518;-3.188;2023-07-20T12:21:47;101240.49;;;18.97;56.60
60817;BME280;51921;51.518;-3.188;2023-07-20T12:24:12;101240.75;;;19.11;55.23
60817;BME280;51921;51.518;-3.188;2023-07-20T12:26:37;101244.82;;;18.92;56.85
60817;BME280;51921;51.518;-3.188;2023-07-20T12:29:03;101243.24;;;18.73;56.80
60817;BME280;51921;51.518;-3.188;2023-07-20T12:31:28;101237.54;;;18.55;57.11
60817;BME280;51921;51.518;-3.188;2023-07-20T12:33:53;101237.13;;;19.75;54.42
60817;BME280;51921;51.518;-3.188;2023-07-20T12:36:19;101237.55;;;17.77;58.07
60817;BME280;51921;51.518;-3.188;2023-07-20T12:38:44;101236.16;;;19.10;56.12
60817;BME280;51921;51.518;-3.188;2023-07-20T12:41:10;101233.32;;;18.48;55.67
60817;BME280;51921;51.518;-3.188;2023-07-20T12:43:34;101228.09;;;18.81;55.54